sensor_id;sensor_type;location;lat;lon;timestamp;pressure;altitude;pressure_sealevel;temperature;humidity
44457;BME280;30159;49.316;8.558;2023-05-22T00:01:18;99952.69;;;18.02;100.00
44457;BME280;30159;49.316;8.558;2023-05-22T00:03:45;99946.22;;;17.94;100.00
44457;BME280;30159;49.316;8.558;2023-05-22T00:06:14;99955.41;;;17.89;100.00
44457;BME280;30159;49.316;8.558;2023-05-22T00:08:42;99948.94;;;17.94;100.00
44457;BME280;30159;49.316;8.558;2023-05-22T00:11:09;99943.16;;;17.96;100.00
44457;BME280;30159;49.316;8.558;2023-05-22T00:13:35;99829.25;;;17.10;100.00
44457;BME280;30159;49.316;8.558;2023-05-22T00:16:02;99950.06;;;17.81;100.00
44457;BME280;30159;49.316;8.558;2023-05-22T00:18:29;99934.34;;;17.65;100.00
44457;BME280;30159;49.316;8.558;2023-05-22T00:20:55;99876.75;;;17.21;100.00
44457;BME280;30159;49.316;8.558;2023-05-22T00:23:24;99932.38;;;17.54;100.00
44457;BME280;30159;49.316;8.558;2023-05-22T00:25:52;99913.13;;;17.38;100.00
44457;BME280;30159;49.316;8.558;2023-05-22T00:28:18;99935.91;;;17.54;100.00
44457;BME280;30159;49.316;8.558;2023-05-22T00:30:45;99937.03;;;17.53;100.00
44457;BME280;30159;49.316;8.558;2023-05-22T00:33:11;99938.16;;;17.52;100.00
44457;BME280;30159;49.316;8.558;2023-05-22T00:35:38;99943.28;;;17.54;100.00
44457;BME280;30159;49.316;8.558;2023-05-22T00:38:04;99938.13;;;17.40;100.00
44457;BME280;30159;49.316;8.558;2023-05-22T00:40:32;99936.19;;;17.40;100.00
44457;BME280;30159;49.316;8.558;2023-05-22T00:42:59;99946.66;;;17.38;100.00
44457;BME280;30159;49.316;8.558;2023-05-22T00:45:32;99944.28;;;17.37;100.00
44457;BME280;30159;49.316;8.558;2023-05-22T00:47:59;99949.72;;;17.37;100.00
44457;BME280;30159;49.316;8.558;2023-05-22T00:50:25;99950.38;;;17.34;100.00
44457;BME280;30159;49.316;8.558;2023-05-22T00:52:52;99951.16;;;17.34;100.00
44457;BME280;30159;49.316;8.558;2023-05-22T00:55:18;99910.16;;;16.97;100.00
44457;BME280;30159;49.316;8.558;2023-05-22T00:57:46;99947.88;;;17.28;100.00
44457;BME280;30159;49.316;8.558;2023-05-22T01:00:14;99952.53;;;17.28;100.00
44457;BME280;30159;49.316;8.558;2023-05-22T01:02:41;99948.88;;;17.24;100.00
44457;BME280;30159;49.316;8.558;2023-05-22T01:05:09;99943.63;;;17.19;100.00
44457;BME280;30159;49.316;8.558;2023-05-22T01:07:37;99937.41;;;17.18;100.00
44457;BME280;30159;49.316;8.558;2023-05-22T01:10:05;99949.75;;;17.16;100.00
44457;BME280;30159;49.316;8.558;2023-05-22T01:12:37;99944.84;;;17.09;100.00
44457;BME280;30159;49.316;8.558;2023-05-22T01:15:13;99923.06;;;16.88;100.00
44457;BME280;30159;49.316;8.558;2023-05-22T01:17:47;99934.69;;;16.97;100.00
44457;BME280;30159;49.316;8.558;2023-05-22T01:20:22;99944.25;;;17.03;100.00
44457;BME280;30159;49.316;8.558;2023-05-22T01:26:19;99925.13;;;16.91;100.00
44457;BME280;30159;49.316;8.558;2023-05-22T01:28:55;99929.88;;;16.94;100.00
44457;BME280;30159;49.316;8.558;2023-05-22T01:31:32;99942.59;;;16.90;100.00
44457;BME280;30159;49.316;8.558;2023-05-22T01:34:02;99934.81;;;16.80;100.00
44457;BME280;30159;49.316;8.558;2023-05-22T01:36:32;99947.31;;;16.81;100.00
44457;BME280;30159;49.316;8.558;2023-05-22T01:39:01;99944.59;;;16.81;100.00
44457;BME280;30159;49.316;8.558;2023-05-22T01:41:31;99956.31;;;16.73;100.00
44457;BME280;30159;49.316;8.558;2023-05-22T01:43:58;99934.66;;;16.55;100.00
44457;BME280;30159;49.316;8.558;2023-05-22T01:46:25;99936.91;;;16.53;100.00
44457;BME280;30159;49.316;8.558;2023-05-22T01:48:53;99957.34;;;16.59;100.00
44457;BME280;30159;49.316;8.558;2023-05-22T01:51:24;99960.28;;;16.54;100.00
44457;BME280;30159;49.316;8.558;2023-05-22T01:53:58;99959.75;;;16.61;100.00
44457;BME280;30159;49.316;8.558;2023-05-22T01:56:32;99966.00;;;16.61;100.00
44457;BME280;30159;49.316;8.558;2023-05-22T01:59:08;99964.22;;;16.65;100.00
44457;BME280;30159;49.316;8.558;2023-05-22T02:01:36;99957.19;;;16.64;100.00
44457;BME280;30159;49.316;8.558;2023-05-22T02:04:05;99964.69;;;16.68;100.00
44457;BME280;30159;49.316;8.558;2023-05-22T02:06:33;99967.59;;;16.62;100.00
44457;BME280;30159;49.316;8.558;2023-05-22T02:09:01;99968.59;;;16.58;100.00
44457;BME280;30159;49.316;8.558;2023-05-22T02:11:31;99966.97;;;16.57;100.00
44457;BME280;30159;49.316;8.558;2023-05-22T02:13:59;99977.59;;;16.50;100.00
44457;BME280;30159;49.316;8.558;2023-05-22T02:16:26;99834.03;;;15.57;100.00
44457;BME280;30159;49.316;8.558;2023-05-22T02:18:58;99922.88;;;16.13;100.00
44457;BME280;30159;49.316;8.558;2023-05-22T02:21:28;99976.03;;;16.49;100.00
44457;BME280;30159;49.316;8.558;2023-05-22T02:23:55;99974.75;;;16.46;100.00
44457;BME280;30159;49.316;8.558;2023-05-22T02:26:21;99979.72;;;16.44;100.00
44457;BME280;30159;49.316;8.558;2023-05-22T02:28:48;99971.88;;;16.42;100.00
44457;BME280;30159;49.316;8.558;2023-05-22T02:31:14;99978.78;;;16.40;100.00
44457;BME280;30159;49.316;8.558;2023-05-22T02:33:42;99977.84;;;16.36;100.00
44457;BME280;30159;49.316;8.558;2023-05-22T02:36:09;99945.59;;;16.17;100.00
44457;BME280;30159;49.316;8.558;2023-05-22T02:38:38;99969.19;;;16.34;100.00
44457;BME280;30159;49.316;8.558;2023-05-22T02:41:06;99969.06;;;16.30;100.00
44457;BME280;30159;49.316;8.558;2023-05-22T02:43:33;99973.25;;;16.28;100.00
44457;BME280;30159;49.316;8.558;2023-05-22T02:46:00;99970.38;;;16.24;100.00
44457;BME280;30159;49.316;8.558;2023-05-22T02:48:26;99972.31;;;16.23;100.00
44457;BME280;30159;49.316;8.558;2023-05-22T02:50:53;99971.34;;;16.19;100.00
44457;BME280;30159;49.316;8.558;2023-05-22T02:53:20;99977.59;;;16.20;100.00
44457;BME280;30159;49.316;8.558;2023-05-22T02:55:48;99966.75;;;16.11;100.00
44457;BME280;30159;49.316;8.558;2023-05-22T02:58:17;99962.34;;;15.98;100.00
44457;BME280;30159;49.316;8.558;2023-05-22T03:00:43;99901.63;;;15.68;100.00
44457;BME280;30159;49.316;8.558;2023-05-22T03:03:10;99977.97;;;16.10;100.00
44457;BME280;30159;49.316;8.558;2023-05-22T03:05:36;99976.03;;;16.10;100.00
44457;BME280;30159;49.316;8.558;2023-05-22T03:08:04;99948.63;;;15.86;100.00
44457;BME280;30159;49.316;8.558;2023-05-22T03:10:30;99984.25;;;16.01;100.00
44457;BME280;30159;49.316;8.558;2023-05-22T03:12:58;99980.91;;;15.96;100.00
44457;BME280;30159;49.316;8.558;2023-05-22T03:15:25;99988.47;;;15.82;100.00
44457;BME280;30159;49.316;8.558;2023-05-22T03:17:52;99989.31;;;15.73;100.00
44457;BME280;30159;49.316;8.558;2023-05-22T03:20:18;99986.69;;;15.68;100.00
44457;BME280;30159;49.316;8.558;2023-05-22T03:22:45;99982.09;;;15.69;100.00
44457;BME280;30159;49.316;8.558;2023-05-22T03:25:11;99987.53;;;15.69;100.00
44457;BME280;30159;49.316;8.558;2023-05-22T03:27:38;99983.50;;;15.66;100.00
44457;BME280;30159;49.316;8.558;2023-05-22T03:30:07;99985.78;;;15.64;100.00
44457;BME280;30159;49.316;8.558;2023-05-22T03:32:34;99991.84;;;15.61;100.00
44457;BME280;30159;49.316;8.558;2023-05-22T03:35:02;99992.00;;;15.56;100.00
44457;BME280;30159;49.316;8.558;2023-05-22T03:37:29;99998.72;;;15.58;100.00
44457;BME280;30159;49.316;8.558;2023-05-22T03:39:55;99999.38;;;15.64;100.00
44457;BME280;30159;49.316;8.558;2023-05-22T03:42:22;99993.28;;;15.58;100.00
44457;BME280;30159;49.316;8.558;2023-05-22T03:44:48;100003.19;;;15.63;100.00
44457;BME280;30159;49.316;8.558;2023-05-22T03:47:16;100005.25;;;15.66;100.00
44457;BME280;30159;49.316;8.558;2023-05-22T03:49:43;99990.06;;;15.65;100.00
44457;BME280;30159;49.316;8.558;2023-05-22T03:52:09;100007.19;;;15.74;100.00
44457;BME280;30159;49.316;8.558;2023-05-22T03:54:36;99959.41;;;15.56;100.00
44457;BME280;30159;49.316;8.558;2023-05-22T03:57:03;99991.34;;;15.85;100.00
44457;BME280;30159;49.316;8.558;2023-05-22T03:59:29;99998.53;;;15.90;100.00
44457;BME280;30159;49.316;8.558;2023-05-22T04:01:56;99998.16;;;16.00;100.00
44457;BME280;30159;49.316;8.558;2023-05-22T04:04:26;99999.06;;;16.13;100.00
44457;BME280;30159;49.316;8.558;2023-05-22T04:06:53;99995.06;;;16.19;100.00
44457;BME280;30159;49.316;8.558;2023-05-22T04:09:24;99997.47;;;16.20;100.00
44457;BME280;30159;49.316;8.558;2023-05-22T04:11:51;99992.81;;;16.21;100.00
44457;BME280;30159;49.316;8.558;2023-05-22T04:14:18;99982.44;;;16.14;100.00
44457;BME280;30159;49.316;8.558;2023-05-22T04:16:44;99988.88;;;16.39;100.00
44457;BME280;30159;49.316;8.558;2023-05-22T04:19:11;100000.53;;;16.49;100.00
44457;BME280;30159;49.316;8.558;2023-05-22T04:21:39;100006.28;;;16.47;100.00
44457;BME280;30159;49.316;8.558;2023-05-22T04:24:06;100007.69;;;16.53;100.00
44457;BME280;30159;49.316;8.558;2023-05-22T04:26:33;100009.75;;;16.56;100.00
44457;BME280;30159;49.316;8.558;2023-05-22T04:29:00;99984.50;;;16.47;100.00
44457;BME280;30159;49.316;8.558;2023-05-22T04:31:26;100022.88;;;16.63;100.00
44457;BME280;30159;49.316;8.558;2023-05-22T04:33:53;100010.00;;;16.72;100.00
44457;BME280;30159;49.316;8.558;2023-05-22T04:36:20;100007.06;;;16.77;100.00
44457;BME280;30159;49.316;8.558;2023-05-22T04:38:51;99976.53;;;16.72;100.00
44457;BME280;30159;49.316;8.558;2023-05-22T04:41:18;100013.50;;;17.02;100.00
44457;BME280;30159;49.316;8.558;2023-05-22T04:43:46;100015.97;;;17.16;100.00
44457;BME280;30159;49.316;8.558;2023-05-22T04:46:13;100020.34;;;17.30;100.00
44457;BME280;30159;49.316;8.558;2023-05-22T04:48:40;100016.06;;;17.41;100.00
44457;BME280;30159;49.316;8.558;2023-05-22T04:51:07;100021.91;;;17.52;100.00
44457;BME280;30159;49.316;8.558;2023-05-22T04:53:33;100006.38;;;17.64;100.00
44457;BME280;30159;49.316;8.558;2023-05-22T04:56:02;100010.00;;;17.89;100.00
44457;BME280;30159;49.316;8.558;2023-05-22T04:58:29;100005.94;;;17.96;100.00
44457;BME280;30159;49.316;8.558;2023-05-22T05:00:56;100022.78;;;18.22;100.00
44457;BME280;30159;49.316;8.558;2023-05-22T05:03:23;100017.78;;;18.37;100.00
44457;BME280;30159;49.316;8.558;2023-05-22T05:05:50;100013.91;;;18.50;100.00
44457;BME280;30159;49.316;8.558;2023-05-22T05:08:17;100009.09;;;18.71;100.00
44457;BME280;30159;49.316;8.558;2023-05-22T05:10:44;100017.31;;;18.96;100.00
44457;BME280;30159;49.316;8.558;2023-05-22T05:13:11;99985.22;;;18.93;100.00
44457;BME280;30159;49.316;8.558;2023-05-22T05:15:38;100018.13;;;19.25;100.00
44457;BME280;30159;49.316;8.558;2023-05-22T05:18:05;100012.66;;;19.53;100.00
44457;BME280;30159;49.316;8.558;2023-05-22T05:20:31;100019.75;;;19.82;100.00
44457;BME280;30159;49.316;8.558;2023-05-22T05:22:58;100013.13;;;20.15;100.00
44457;BME280;30159;49.316;8.558;2023-05-22T05:25:25;100012.91;;;20.55;100.00
44457;BME280;30159;49.316;8.558;2023-05-22T05:27:51;100010.78;;;21.00;98.57
44457;BME280;30159;49.316;8.558;2023-05-22T05:30:19;100013.28;;;21.44;96.32
44457;BME280;30159;49.316;8.558;2023-05-22T05:32:46;100012.25;;;21.95;92.36
44457;BME280;30159;49.316;8.558;2023-05-22T05:35:12;100017.16;;;22.28;89.71
44457;BME280;30159;49.316;8.558;2023-05-22T05:37:39;100007.78;;;22.82;86.17
44457;BME280;30159;49.316;8.558;2023-05-22T05:40:07;100010.91;;;23.45;82.16
44457;BME280;30159;49.316;8.558;2023-05-22T05:42:34;100001.47;;;23.80;80.11
44457;BME280;30159;49.316;8.558;2023-05-22T05:45:00;100014.94;;;24.33;79.28
44457;BME280;30159;49.316;8.558;2023-05-22T05:47:28;100013.06;;;25.07;76.45
44457;BME280;30159;49.316;8.558;2023-05-22T05:49:55;100020.84;;;25.89;73.15
44457;BME280;30159;49.316;8.558;2023-05-22T05:52:22;100016.53;;;25.95;70.50
44457;BME280;30159;49.316;8.558;2023-05-22T05:54:50;100024.78;;;26.66;69.55
44457;BME280;30159;49.316;8.558;2023-05-22T05:57:17;100023.44;;;27.32;66.57
44457;BME280;30159;49.316;8.558;2023-05-22T05:59:43;99991.88;;;27.04;65.96
44457;BME280;30159;49.316;8.558;2023-05-22T06:02:10;100031.22;;;27.59;64.94
44457;BME280;30159;49.316;8.558;2023-05-22T06:04:38;99934.50;;;27.08;65.42
44457;BME280;30159;49.316;8.558;2023-05-22T06:07:04;100038.16;;;28.44;63.66
44457;BME280;30159;49.316;8.558;2023-05-22T06:09:32;100033.50;;;28.75;62.16
44457;BME280;30159;49.316;8.558;2023-05-22T06:11:58;100031.63;;;29.37;60.63
44457;BME280;30159;49.316;8.558;2023-05-22T06:14:25;100032.78;;;29.40;60.06
44457;BME280;30159;49.316;8.558;2023-05-22T06:16:52;100035.47;;;29.78;59.62
44457;BME280;30159;49.316;8.558;2023-05-22T06:19:18;100029.84;;;29.81;59.70
44457;BME280;30159;49.316;8.558;2023-05-22T06:21:46;100032.72;;;29.44;61.06
44457;BME280;30159;49.316;8.558;2023-05-22T06:24:13;100034.84;;;29.63;59.44
44457;BME280;30159;49.316;8.558;2023-05-22T06:26:40;100035.09;;;29.76;60.28
44457;BME280;30159;49.316;8.558;2023-05-22T06:29:07;100038.53;;;30.11;59.23
44457;BME280;30159;49.316;8.558;2023-05-22T06:31:33;100036.00;;;30.20;58.36
44457;BME280;30159;49.316;8.558;2023-05-22T06:34:02;100027.41;;;30.11;58.53
44457;BME280;30159;49.316;8.558;2023-05-22T06:36:28;100039.19;;;30.18;58.86
44457;BME280;30159;49.316;8.558;2023-05-22T06:38:57;100030.88;;;30.65;57.50
44457;BME280;30159;49.316;8.558;2023-05-22T06:41:23;100038.00;;;31.10;56.73
44457;BME280;30159;49.316;8.558;2023-05-22T06:43:50;99932.38;;;30.36;56.68
44457;BME280;30159;49.316;8.558;2023-05-22T06:46:16;100033.78;;;30.78;56.74
44457;BME280;30159;49.316;8.558;2023-05-22T06:48:43;100030.72;;;30.73;57.49
44457;BME280;30159;49.316;8.558;2023-05-22T06:51:10;100031.97;;;31.32;57.06
44457;BME280;30159;49.316;8.558;2023-05-22T06:53:37;100032.03;;;31.48;56.53
44457;BME280;30159;49.316;8.558;2023-05-22T06:56:05;100033.50;;;31.89;54.77
44457;BME280;30159;49.316;8.558;2023-05-22T06:58:32;100037.34;;;31.95;55.50
44457;BME280;30159;49.316;8.558;2023-05-22T07:00:58;100029.47;;;31.74;54.86
44457;BME280;30159;49.316;8.558;2023-05-22T07:03:24;100039.97;;;32.02;55.41
44457;BME280;30159;49.316;8.558;2023-05-22T07:05:53;100042.56;;;31.93;54.22
44457;BME280;30159;49.316;8.558;2023-05-22T07:08:20;100045.09;;;31.87;53.88
44457;BME280;30159;49.316;8.558;2023-05-22T07:10:47;100042.63;;;31.73;54.98
44457;BME280;30159;49.316;8.558;2023-05-22T07:13:16;100038.78;;;32.20;55.18
44457;BME280;30159;49.316;8.558;2023-05-22T07:15:42;100045.97;;;32.95;52.78
44457;BME280;30159;49.316;8.558;2023-05-22T07:18:09;100039.81;;;33.30;51.84
44457;BME280;30159;49.316;8.558;2023-05-22T07:20:37;100048.78;;;33.25;51.92
44457;BME280;30159;49.316;8.558;2023-05-22T07:23:03;100043.25;;;33.63;51.33
44457;BME280;30159;49.316;8.558;2023-05-22T07:25:30;100008.00;;;33.78;50.45
44457;BME280;30159;49.316;8.558;2023-05-22T07:27:56;100045.47;;;34.19;50.23
44457;BME280;30159;49.316;8.558;2023-05-22T07:30:24;100051.66;;;33.76;50.66
44457;BME280;30159;49.316;8.558;2023-05-22T07:32:51;100046.31;;;33.40;51.06
44457;BME280;30159;49.316;8.558;2023-05-22T07:35:17;100050.22;;;33.29;51.66
44457;BME280;30159;49.316;8.558;2023-05-22T07:37:44;99949.97;;;32.31;52.40
44457;BME280;30159;49.316;8.558;2023-05-22T07:40:11;100052.84;;;32.78;52.60
44457;BME280;30159;49.316;8.558;2023-05-22T07:42:37;100057.63;;;33.36;51.34
44457;BME280;30159;49.316;8.558;2023-05-22T07:45:05;100053.38;;;33.31;51.28
44457;BME280;30159;49.316;8.558;2023-05-22T07:47:33;100055.00;;;33.58;50.86
44457;BME280;30159;49.316;8.558;2023-05-22T07:50:00;100059.16;;;33.92;50.59
44457;BME280;30159;49.316;8.558;2023-05-22T07:52:28;100062.94;;;34.24;49.79
44457;BME280;30159;49.316;8.558;2023-05-22T07:54:55;100061.94;;;34.05;50.29
44457;BME280;30159;49.316;8.558;2023-05-22T07:57:22;100066.66;;;34.55;49.98
44457;BME280;30159;49.316;8.558;2023-05-22T07:59:48;100057.03;;;34.56;49.70
44457;BME280;30159;49.316;8.558;2023-05-22T08:02:16;100037.47;;;34.78;48.31
44457;BME280;30159;49.316;8.558;2023-05-22T08:04:43;100071.28;;;34.49;48.97
44457;BME280;30159;49.316;8.558;2023-05-22T08:07:10;100067.47;;;33.41;51.33
44457;BME280;30159;49.316;8.558;2023-05-22T08:09:36;100072.44;;;32.12;53.88
44457;BME280;30159;49.316;8.558;2023-05-22T08:12:04;100069.00;;;30.69;56.23
44457;BME280;30159;49.316;8.558;2023-05-22T08:14:30;100072.41;;;30.06;58.79
44457;BME280;30159;49.316;8.558;2023-05-22T08:16:57;100070.09;;;29.39;59.71
44457;BME280;30159;49.316;8.558;2023-05-22T08:19:24;100074.03;;;28.17;61.84
44457;BME280;30159;49.316;8.558;2023-05-22T08:21:52;100071.88;;;27.83;63.28
44457;BME280;30159;49.316;8.558;2023-05-22T08:24:22;100072.94;;;28.04;63.84
44457;BME280;30159;49.316;8.558;2023-05-22T08:26:52;100069.09;;;27.90;63.09
44457;BME280;30159;49.316;8.558;2023-05-22T08:29:19;100069.44;;;27.92;64.04
44457;BME280;30159;49.316;8.558;2023-05-22T08:31:45;100059.97;;;26.77;65.85
44457;BME280;30159;49.316;8.558;2023-05-22T08:34:12;100059.16;;;25.90;67.74
44457;BME280;30159;49.316;8.558;2023-05-22T08:36:38;100066.25;;;25.88;70.11
44457;BME280;30159;49.316;8.558;2023-05-22T08:39:08;100065.50;;;26.19;70.50
44457;BME280;30159;49.316;8.558;2023-05-22T08:41:36;100054.03;;;26.49;68.73
44457;BME280;30159;49.316;8.558;2023-05-22T08:44:03;100053.56;;;27.12;66.61
44457;BME280;30159;49.316;8.558;2023-05-22T08:46:30;100067.78;;;27.32;66.56
44457;BME280;30159;49.316;8.558;2023-05-22T08:49:03;100056.41;;;27.82;65.84
44457;BME280;30159;49.316;8.558;2023-05-22T08:51:32;100063.75;;;27.40;65.45
44457;BME280;30159;49.316;8.558;2023-05-22T08:54:03;100053.84;;;27.43;66.89
44457;BME280;30159;49.316;8.558;2023-05-22T08:56:32;100051.56;;;28.04;64.42
44457;BME280;30159;49.316;8.558;2023-05-22T08:58:59;100045.69;;;27.95;63.62
44457;BME280;30159;49.316;8.558;2023-05-22T09:01:27;100043.16;;;27.48;64.93
44457;BME280;30159;49.316;8.558;2023-05-22T09:03:54;100054.69;;;27.29;65.50
44457;BME280;30159;49.316;8.558;2023-05-22T09:06:23;100048.91;;;26.41;68.03
44457;BME280;30159;49.316;8.558;2023-05-22T09:08:49;100046.56;;;26.64;68.58
44457;BME280;30159;49.316;8.558;2023-05-22T09:11:17;100031.53;;;26.58;69.75
44457;BME280;30159;49.316;8.558;2023-05-22T09:13:47;100043.94;;;27.45;67.82
44457;BME280;30159;49.316;8.558;2023-05-22T09:16:15;100042.19;;;26.81;67.27
44457;BME280;30159;49.316;8.558;2023-05-22T09:18:43;100045.59;;;27.32;68.53
44457;BME280;30159;49.316;8.558;2023-05-22T09:21:11;100047.81;;;27.66;65.25
44457;BME280;30159;49.316;8.558;2023-05-22T09:23:38;100052.41;;;27.98;65.44
44457;BME280;30159;49.316;8.558;2023-05-22T09:26:05;100043.25;;;27.97;62.49
44457;BME280;30159;49.316;8.558;2023-05-22T09:28:32;100044.44;;;27.26;65.46
44457;BME280;30159;49.316;8.558;2023-05-22T09:31:01;100045.41;;;27.68;63.21
44457;BME280;30159;49.316;8.558;2023-05-22T09:33:29;100041.97;;;28.12;63.28
44457;BME280;30159;49.316;8.558;2023-05-22T09:35:56;100034.06;;;28.60;62.25
44457;BME280;30159;49.316;8.558;2023-05-22T09:38:25;100034.34;;;28.72;60.65
44457;BME280;30159;49.316;8.558;2023-05-22T09:40:53;100043.69;;;28.86;61.03
44457;BME280;30159;49.316;8.558;2023-05-22T09:43:21;100037.44;;;28.78;61.46
44457;BME280;30159;49.316;8.558;2023-05-22T09:45:54;100045.34;;;28.38;62.01
44457;BME280;30159;49.316;8.558;2023-05-22T09:48:23;100034.41;;;28.65;62.58
44457;BME280;30159;49.316;8.558;2023-05-22T09:50:52;100032.41;;;29.04;62.56
44457;BME280;30159;49.316;8.558;2023-05-22T09:53:19;100027.31;;;28.98;61.94
44457;BME280;30159;49.316;8.558;2023-05-22T09:55:50;100022.25;;;28.90;61.07
44457;BME280;30159;49.316;8.558;2023-05-22T09:58:18;100028.66;;;27.89;62.70
44457;BME280;30159;49.316;8.558;2023-05-22T10:00:45;100023.06;;;27.97;62.85
44457;BME280;30159;49.316;8.558;2023-05-22T10:03:14;100028.69;;;27.82;65.10
44457;BME280;30159;49.316;8.558;2023-05-22T10:05:50;100035.16;;;28.24;62.86
44457;BME280;30159;49.316;8.558;2023-05-22T10:08:22;100005.72;;;27.85;62.88
44457;BME280;30159;49.316;8.558;2023-05-22T10:10:50;100030.38;;;27.65;64.29
44457;BME280;30159;49.316;8.558;2023-05-22T10:13:17;100001.66;;;28.01;64.59
44457;BME280;30159;49.316;8.558;2023-05-22T10:15:45;100025.91;;;28.42;64.64
44457;BME280;30159;49.316;8.558;2023-05-22T10:18:13;100020.75;;;28.82;63.35
44457;BME280;30159;49.316;8.558;2023-05-22T10:20:40;100018.66;;;28.93;63.78
44457;BME280;30159;49.316;8.558;2023-05-22T10:23:08;100004.38;;;28.53;62.93
44457;BME280;30159;49.316;8.558;2023-05-22T10:25:36;100023.03;;;27.37;65.68
44457;BME280;30159;49.316;8.558;2023-05-22T10:28:03;100014.72;;;27.37;65.42
44457;BME280;30159;49.316;8.558;2023-05-22T10:30:33;100016.03;;;26.93;68.03
44457;BME280;30159;49.316;8.558;2023-05-22T10:33:06;100023.44;;;27.32;68.59
44457;BME280;30159;49.316;8.558;2023-05-22T10:35:39;100009.78;;;27.70;67.75
44457;BME280;30159;49.316;8.558;2023-05-22T10:38:20;100002.94;;;27.89;66.85
44457;BME280;30159;49.316;8.558;2023-05-22T10:40:51;100008.41;;;28.00;67.05
44457;BME280;30159;49.316;8.558;2023-05-22T10:43:20;99998.31;;;28.20;67.96
44457;BME280;30159;49.316;8.558;2023-05-22T10:45:46;100004.16;;;27.84;65.83
44457;BME280;30159;49.316;8.558;2023-05-22T10:48:13;99948.41;;;26.94;65.40
44457;BME280;30159;49.316;8.558;2023-05-22T10:50:49;100004.66;;;26.59;67.51
44457;BME280;30159;49.316;8.558;2023-05-22T10:53:19;100004.59;;;26.80;68.43
44457;BME280;30159;49.316;8.558;2023-05-22T10:55:46;99968.19;;;27.00;67.11
44457;BME280;30159;49.316;8.558;2023-05-22T10:58:13;99999.78;;;27.09;63.10
44457;BME280;30159;49.316;8.558;2023-05-22T11:00:40;99997.34;;;27.19;65.18
44457;BME280;30159;49.316;8.558;2023-05-22T11:03:07;99993.03;;;27.10;64.85
44457;BME280;30159;49.316;8.558;2023-05-22T11:05:35;99974.63;;;26.64;63.56
44457;BME280;30159;49.316;8.558;2023-05-22T11:08:36;99988.81;;;26.74;66.21
44457;BME280;30159;49.316;8.558;2023-05-22T11:11:12;99987.59;;;26.93;64.38
44457;BME280;30159;49.316;8.558;2023-05-22T11:13:39;99989.53;;;26.96;64.39
44457;BME280;30159;49.316;8.558;2023-05-22T11:16:08;99975.63;;;27.21;65.32
44457;BME280;30159;49.316;8.558;2023-05-22T11:18:35;99976.03;;;27.12;63.43
44457;BME280;30159;49.316;8.558;2023-05-22T11:21:02;99985.22;;;26.84;63.26
44457;BME280;30159;49.316;8.558;2023-05-22T11:23:33;99976.59;;;26.60;64.50
44457;BME280;30159;49.316;8.558;2023-05-22T11:26:18;99979.75;;;26.62;63.60
44457;BME280;30159;49.316;8.558;2023-05-22T11:28:48;99971.09;;;26.28;64.09
44457;BME280;30159;49.316;8.558;2023-05-22T11:31:16;99967.53;;;26.35;64.83
44457;BME280;30159;49.316;8.558;2023-05-22T11:33:44;99890.16;;;26.13;64.98
44457;BME280;30159;49.316;8.558;2023-05-22T11:36:11;99963.44;;;26.93;64.76
44457;BME280;30159;49.316;8.558;2023-05-22T11:38:38;99954.66;;;27.16;63.00
44457;BME280;30159;49.316;8.558;2023-05-22T11:41:07;99941.56;;;27.24;62.41
44457;BME280;30159;49.316;8.558;2023-05-22T11:43:35;99944.44;;;27.02;61.36
44457;BME280;30159;49.316;8.558;2023-05-22T11:46:05;99949.91;;;27.13;62.45
44457;BME280;30159;49.316;8.558;2023-05-22T11:48:32;99952.16;;;27.40;62.59
44457;BME280;30159;49.316;8.558;2023-05-22T11:50:59;99949.75;;;27.45;61.76
44457;BME280;30159;49.316;8.558;2023-05-22T11:53:25;99947.50;;;27.26;61.22
44457;BME280;30159;49.316;8.558;2023-05-22T11:55:52;99938.81;;;27.27;61.83
44457;BME280;30159;49.316;8.558;2023-05-22T11:58:20;99939.97;;;27.26;59.95
44457;BME280;30159;49.316;8.558;2023-05-22T12:00:49;99944.44;;;27.02;61.35
44457;BME280;30159;49.316;8.558;2023-05-22T12:03:15;99941.25;;;27.07;60.29
44457;BME280;30159;49.316;8.558;2023-05-22T12:05:44;99943.56;;;27.12;60.88
44457;BME280;30159;49.316;8.558;2023-05-22T12:08:11;99929.78;;;27.09;62.03
44457;BME280;30159;49.316;8.558;2023-05-22T12:10:45;99936.50;;;27.04;61.89
44457;BME280;30159;49.316;8.558;2023-05-22T12:13:12;99921.50;;;26.98;60.69
44457;BME280;30159;49.316;8.558;2023-05-22T12:15:38;99802.44;;;26.17;61.93
44457;BME280;30159;49.316;8.558;2023-05-22T12:18:08;99928.22;;;27.04;61.67
44457;BME280;30159;49.316;8.558;2023-05-22T12:20:40;99918.66;;;27.12;61.44
44457;BME280;30159;49.316;8.558;2023-05-22T12:23:10;99923.75;;;27.28;60.99
44457;BME280;30159;49.316;8.558;2023-05-22T12:25:36;99922.09;;;27.38;60.74
44457;BME280;30159;49.316;8.558;2023-05-22T12:28:05;99924.03;;;27.41;62.25
44457;BME280;30159;49.316;8.558;2023-05-22T12:30:38;99887.03;;;27.10;61.54
44457;BME280;30159;49.316;8.558;2023-05-22T12:33:11;99914.19;;;27.37;62.18
44457;BME280;30159;49.316;8.558;2023-05-22T12:35:38;99919.72;;;27.40;62.10
44457;BME280;30159;49.316;8.558;2023-05-22T12:38:06;99928.47;;;27.35;60.83
44457;BME280;30159;49.316;8.558;2023-05-22T12:40:32;99914.94;;;27.44;62.76
44457;BME280;30159;49.316;8.558;2023-05-22T12:42:59;99912.94;;;27.48;62.73
44457;BME280;30159;49.316;8.558;2023-05-22T12:45:25;99908.50;;;27.58;60.02
44457;BME280;30159;49.316;8.558;2023-05-22T12:47:52;99914.75;;;27.69;61.21
44457;BME280;30159;49.316;8.558;2023-05-22T12:50:20;99911.50;;;27.78;61.85
44457;BME280;30159;49.316;8.558;2023-05-22T12:52:46;99913.47;;;27.81;61.87
44457;BME280;30159;49.316;8.558;2023-05-22T12:55:13;99913.81;;;27.90;61.14
44457;BME280;30159;49.316;8.558;2023-05-22T12:57:39;99902.63;;;28.01;59.46